Time;durP1;ratioP1;P1;durP2;ratioP2;P2;SDS_P1;SDS_P2;PMS_P1;PMS_P2;Temp;Humidity;BMP_temperature;BMP_pressure;BME280_temperature;BME280_humidity;BME280_pressure;Samples;Min_cycle;Max_cycle;Signal;HPM_P1;HPM_P2
2022/04/12 04:16:23;;;;;;;5.97;4.53;;;;;;;6.61;63.99;98487.16;2619820;31;20519;-63
2022/04/12 04:18:53;;;;;;;8.15;5.38;;;;;;;6.68;63.99;98484.63;2617037;54;20592;-63
2022/04/12 04:21:22;;;;;;;9.63;5.15;;;;;;;6.67;64.33;98490.88;2618175;54;20569;-63
2022/04/12 04:23:52;;;;;;;5.72;4.50;;;;;;;6.69;64.52;98494.13;2617904;54;20037;-64
2022/04/12 04:26:21;;;;;;;5.85;4.80;;;;;;;6.75;64.48;98492.63;2618327;54;20063;-61
2022/04/12 04:28:51;;;;;;;6.82;5.28;;;;;;;6.74;64.24;98491.81;2618231;39;20427;-64
2022/04/12 04:31:23;;;;;;;6.95;4.30;;;;;;;6.72;64.24;98488.53;2617844;54;20039;-62
2022/04/12 04:33:58;;;;;;;9.13;5.10;;;;;;;6.72;64.44;98483.28;2618567;39;20442;-62
2022/04/12 04:36:28;;;;;;;7.70;5.10;;;;;;;6.73;64.71;98486.72;2617963;54;20038;-63
2022/04/12 04:38:58;;;;;;;7.82;4.93;;;;;;;6.79;65.13;98484.22;2618473;54;20045;-63
2022/04/12 04:41:27;;;;;;;12.75;5.45;;;;;;;6.78;64.43;98487.84;2618801;54;20049;-63
2022/04/12 04:43:57;;;;;;;8.50;4.32;;;;;;;6.72;64.67;98482.47;2618829;54;20039;-63
2022/04/12 04:46:29;;;;;;;7.13;4.70;;;;;;;6.75;65.35;98487.38;2618084;47;20031;-62
2022/04/12 04:48:59;;;;;;;6.07;4.15;;;;;;;6.83;64.74;98487.31;2619089;39;20434;-62
2022/04/12 04:51:29;;;;;;;8.85;4.65;;;;;;;6.77;64.37;98495.91;2618930;54;20035;-63
2022/04/12 04:54:00;;;;;;;6.35;3.97;;;;;;;6.69;64.57;98502.03;2619094;54;20043;-62
2022/04/12 04:56:30;;;;;;;7.45;4.32;;;;;;;6.75;65.44;98501.34;2618884;54;20035;-62
2022/04/12 04:59:00;;;;;;;6.85;4.47;;;;;;;6.80;64.80;98500.81;2618502;54;20022;-62
2022/04/12 05:01:32;;;;;;;6.70;4.05;;;;;;;6.78;65.06;98497.56;2618888;54;20098;-62
2022/04/12 05:04:02;;;;;;;7.00;4.15;;;;;;;6.80;64.76;98496.38;2618676;54;20026;-62
2022/04/12 05:06:32;;;;;;;7.03;4.63;;;;;;;6.80;64.79;98506.06;2619371;39;20488;-63
2022/04/12 05:09:01;;;;;;;7.00;4.60;;;;;;;6.78;65.10;98505.44;2618244;54;20105;-62
2022/04/12 05:11:31;;;;;;;5.95;4.13;;;;;;;6.83;65.37;98503.91;2618772;54;20034;-63
2022/04/12 05:14:01;;;;;;;10.50;5.53;;;;;;;7.01;64.71;98503.59;2618714;54;20031;-63
2022/04/12 05:16:33;;;;;;;10.02;4.80;;;;;;;7.16;64.37;98501.81;2618643;54;20034;-63
2022/04/12 05:19:03;;;;;;;8.50;4.95;;;;;;;7.17;63.95;98500.81;2618521;54;20030;-62
2022/04/12 05:21:32;;;;;;;8.30;6.18;;;;;;;7.09;64.03;98500.06;2618664;54;20035;-63
2022/04/12 05:24:04;;;;;;;8.13;5.07;;;;;;;7.14;64.54;98510.88;2618604;54;20030;-63
2022/04/12 05:26:34;;;;;;;8.68;5.43;;;;;;;7.23;64.25;98501.94;2618604;54;20019;-62
2022/04/12 05:29:03;;;;;;;9.40;5.07;;;;;;;7.25;64.34;98505.19;2618005;54;20061;-63
2022/04/12 05:31:35;;;;;;;6.85;5.13;;;;;;;7.29;63.37;98503.03;2618622;54;20034;-63
2022/04/12 05:34:05;;;;;;;9.77;5.47;;;;;;;7.28;63.75;98512.72;2618581;54;20037;-63
2022/04/12 05:36:35;;;;;;;9.20;5.03;;;;;;;7.31;63.25;98506.31;2618678;39;20439;-65
2022/04/12 05:39:04;;;;;;;9.15;5.30;;;;;;;7.34;63.62;98500.66;2618236;39;20424;-62
2022/04/12 05:41:34;;;;;;;7.78;5.22;;;;;;;7.45;63.28;98506.31;2618056;54;20030;-63
2022/04/12 05:44:03;;;;;;;8.93;5.60;;;;;;;7.57;63.49;98505.88;2617963;54;20061;-63
2022/04/12 05:46:35;;;;;;;8.05;5.07;;;;;;;7.63;63.43;98510.41;2618095;54;20034;-64
2022/04/12 05:49:05;;;;;;;12.18;7.03;;;;;;;7.65;63.13;98511.06;2618215;54;20530;-64
2022/04/12 05:51:35;;;;;;;15.50;10.70;;;;;;;7.81;63.05;98508.25;2622474;54;20038;-63
2022/04/12 05:54:04;;;;;;;9.45;5.20;;;;;;;7.70;62.95;98509.50;2622573;54;20594;-63
2022/04/12 05:56:34;;;;;;;12.30;7.28;;;;;;;7.79;63.07;98504.16;2622879;54;20033;-63
2022/04/12 05:59:06;;;;;;;10.57;6.13;;;;;;;7.79;62.68;98506.78;2617754;47;20061;-63
2022/04/12 06:01:38;;;;;;;9.18;5.82;;;;;;;7.85;63.18;98512.13;2617827;54;20034;-64
2022/04/12 06:04:08;;;;;;;13.57;6.18;;;;;;;8.01;62.98;98516.41;2618332;54;20127;-65
2022/04/12 06:06:40;;;;;;;13.85;6.05;;;;;;;8.06;62.78;98519.28;2618212;54;20034;-65
2022/04/12 06:09:10;;;;;;;8.48;5.18;;;;;;;8.18;62.78;98514.38;2617942;54;20050;-63
2022/04/12 06:11:39;;;;;;;21.50;6.07;;;;;;;8.30;62.20;98509.47;2618453;54;20628;-63
2022/04/12 06:14:09;;;;;;;8.23;5.53;;;;;;;8.49;62.05;98508.91;2618283;54;20039;-64
2022/04/12 06:16:41;;;;;;;10.43;4.88;;;;;;;8.65;61.73;98500.75;2618422;54;20063;-63
2022/04/12 06:19:11;;;;;;;7.57;4.93;;;;;;;8.74;61.45;98511.19;2618001;54;20083;-63
2022/04/12 06:21:40;;;;;;;9.40;5.43;;;;;;;8.89;61.01;98504.81;2618390;54;20038;-63
2022/04/12 06:24:10;;;;;;;9.00;5.43;;;;;;;9.04;60.45;98515.31;2618092;54;20558;-64
2022/04/12 06:26:40;;;;;;;10.43;5.40;;;;;;;9.19;59.44;98523.16;2618441;54;20037;-64
2022/04/12 06:29:10;;;;;;;6.80;5.55;;;;;;;9.23;59.04;98520.97;2618226;54;20034;-64
2022/04/12 06:31:42;;;;;;;10.93;4.90;;;;;;;9.29;59.33;98525.44;2618330;54;20045;-65
2022/04/12 06:34:12;;;;;;;8.68;5.68;;;;;;;9.43;58.82;98521.91;2618280;54;20039;-63
2022/04/12 06:36:41;;;;;;;7.82;5.50;;;;;;;9.55;58.16;98524.81;2618380;54;20553;-64
2022/04/12 06:39:11;;;;;;;7.55;5.38;;;;;;;9.55;58.23;98524.81;2618231;54;20030;-63
2022/04/12 06:41:40;;;;;;;10.82;6.43;;;;;;;9.60;57.72;98533.81;2618552;54;20035;-64
2022/04/12 06:44:10;;;;;;;9.00;6.78;;;;;;;9.63;57.41;98522.88;2619036;39;20460;-64
2022/04/12 06:46:42;;;;;;;9.88;6.32;;;;;;;9.69;57.57;98531.84;2618255;54;20042;-64
2022/04/12 06:49:12;;;;;;;12.70;8.77;;;;;;;9.80;56.89;98539.22;2618334;54;20168;-64
2022/04/12 06:51:42;;;;;;;8.25;5.70;;;;;;;9.82;57.36;98531.91;2618300;54;20030;-63
2022/04/12 06:54:11;;;;;;;9.43;5.93;;;;;;;9.97;56.91;98531.00;2618595;54;20543;-65
2022/04/12 06:56:41;;;;;;;9.38;6.50;;;;;;;10.07;56.09;98528.78;2618916;54;20053;-63
2022/04/12 06:59:10;;;;;;;8.35;5.95;;;;;;;10.12;56.03;98529.00;2620038;54;20039;-65
2022/04/12 07:01:43;;;;;;;9.85;5.45;;;;;;;10.17;56.37;98522.16;2620135;54;20038;-63
2022/04/12 07:04:12;;;;;;;9.38;5.60;;;;;;;10.32;56.00;98522.00;2620672;54;20617;-63
2022/04/12 07:06:42;;;;;;;7.25;4.95;;;;;;;10.45;55.79;98520.44;2621117;54;20030;-64
2022/04/12 07:09:17;;;;;;;10.32;5.93;;;;;;;10.55;55.07;98516.41;2618451;47;20027;-63
2022/04/12 07:11:46;;;;;;;8.20;5.38;;;;;;;10.68;54.89;98518.25;2618385;47;20023;-62
2022/04/12 07:14:16;;;;;;;6.95;4.82;;;;;;;10.82;55.03;98527.06;2618145;54;20138;-65
2022/04/12 07:16:48;;;;;;;24.73;17.20;;;;;;;11.02;54.40;98519.97;2618095;54;20054;-64
2022/04/12 07:19:18;;;;;;;12.05;7.68;;;;;;;11.24;53.69;98519.78;2618059;54;20551;-64
2022/04/12 07:21:48;;;;;;;8.00;5.15;;;;;;;11.39;52.75;98513.25;2618077;54;20033;-63
2022/04/12 07:24:18;;;;;;;7.60;4.50;;;;;;;11.53;52.31;98508.75;2618056;54;20044;-63
2022/04/12 07:26:48;;;;;;;6.18;4.13;;;;;;;11.70;51.26;98508.31;2617769;54;20642;-64
2022/04/12 07:29:18;;;;;;;9.93;4.65;;;;;;;11.82;51.61;98504.00;2617724;54;20581;-63
2022/04/12 07:31:50;;;;;;;7.65;3.90;;;;;;;11.98;51.21;98506.25;2617934;54;20038;-63
2022/04/12 07:34:20;;;;;;;5.72;3.60;;;;;;;12.13;50.77;98500.69;2617780;54;20035;-63
2022/04/12 07:36:53;;;;;;;5.38;3.30;;;;;;;12.28;49.93;98495.91;2618010;54;20041;-63
2022/04/12 07:39:23;;;;;;;8.10;3.15;;;;;;;12.39;49.65;98489.97;2619309;54;20126;-63
2022/04/12 07:41:53;;;;;;;4.93;2.92;;;;;;;12.53;49.18;98495.19;2618206;54;20030;-64
2022/04/12 07:44:23;;;;;;;4.68;2.85;;;;;;;12.69;48.27;98497.34;2617914;54;20027;-65
2022/04/12 07:46:58;;;;;;;3.58;2.85;;;;;;;12.82;48.77;98504.44;2617624;54;20039;-63
2022/04/12 07:49:28;;;;;;;8.05;6.90;;;;;;;12.98;48.70;98509.22;2619137;54;20044;-63
2022/04/12 07:51:57;;;;;;;11.85;9.70;;;;;;;13.08;48.00;98496.25;2620120;54;20048;-63
2022/04/12 07:54:27;;;;;;;7.50;5.20;;;;;;;13.19;47.63;98492.09;2619640;54;20034;-62
2022/04/12 07:56:57;;;;;;;5.13;4.30;;;;;;;13.39;47.03;98502.59;2617610;54;20029;-65
2022/04/12 07:59:27;;;;;;;4.28;3.15;;;;;;;13.52;46.69;98499.81;2617988;54;20038;-62
2022/04/12 08:01:59;;;;;;;6.60;3.83;;;;;;;13.60;46.52;98501.38;2617903;54;20038;-63
2022/04/12 08:04:29;;;;;;;8.00;3.72;;;;;;;13.69;46.02;98502.72;2618159;54;20042;-63
2022/04/12 08:06:58;;;;;;;4.75;2.10;;;;;;;13.71;45.88;98492.66;2619280;54;20037;-63
2022/04/12 08:09:28;;;;;;;2.80;2.10;;;;;;;13.75;45.31;98491.19;2619003;54;20026;-65
2022/04/12 08:11:58;;;;;;;5.03;3.67;;;;;;;13.91;45.39;98492.44;2618246;54;20026;-64
2022/04/12 08:14:27;;;;;;;12.20;7.40;;;;;;;14.04;44.90;98496.78;2618657;54;20538;-64
2022/04/12 08:17:00;;;;;;;3.50;2.20;;;;;;;14.15;43.77;98489.94;2618327;54;20039;-64
2022/04/12 08:19:29;;;;;;;5.28;3.25;;;;;;;14.25;43.42;98488.38;2618775;54;20061;-64
2022/04/12 08:22:02;;;;;;;4.43;2.05;;;;;;;14.34;43.53;98487.03;2618637;54;20042;-64
2022/04/12 08:24:31;;;;;;;5.72;2.50;;;;;;;14.43;43.18;98487.53;2618860;54;20038;-63
2022/04/12 08:27:01;;;;;;;3.75;2.22;;;;;;;14.58;42.84;98487.97;2618764;54;20034;-63
2022/04/12 08:29:30;;;;;;;5.70;2.17;;;;;;;14.69;42.58;98491.69;2619260;54;20030;-64
2022/04/12 08:32:03;;;;;;;4.57;2.00;;;;;;;14.76;41.94;98486.28;2619403;54;20027;-64
2022/04/12 08:34:32;;;;;;;3.22;2.58;;;;;;;14.82;41.93;98488.88;2619439;54;20030;-64
2022/04/12 08:37:02;;;;;;;9.15;7.07;;;;;;;14.85;42.05;98487.59;2621082;54;20031;-63
2022/04/12 08:39:31;;;;;;;3.45;2.92;;;;;;;14.91;41.97;98488.53;2619100;54;20049;-65
2022/04/12 08:42:03;;;;;;;3.17;2.30;;;;;;;14.97;41.09;98488.41;2619273;54;20038;-63
2022/04/12 08:44:36;;;;;;;4.93;3.45;;;;;;;15.08;41.26;98476.19;2619887;54;20103;-64
2022/04/12 08:47:10;;;;;;;4.90;2.30;;;;;;;15.16;41.07;98475.03;2619856;54;20033;-63
2022/04/12 08:49:42;;;;;;;3.88;1.77;;;;;;;15.29;41.15;98475.63;2620281;54;20049;-63
2022/04/12 08:52:13;;;;;;;4.22;2.40;;;;;;;15.42;40.59;98471.91;2619799;54;20046;-64
2022/04/12 08:54:43;;;;;;;5.40;3.05;;;;;;;15.48;40.30;98470.19;2618972;54;20034;-64
2022/04/12 08:57:14;;;;;;;4.50;2.30;;;;;;;15.58;40.32;98471.22;2618445;54;20023;-63
2022/04/12 08:59:43;;;;;;;7.47;3.17;;;;;;;15.70;40.14;98465.91;2619822;54;20046;-66
2022/04/12 09:02:16;;;;;;;2.13;1.40;;;;;;;15.83;39.01;98465.66;2622727;39;20427;-64
2022/04/12 09:04:45;;;;;;;6.50;2.83;;;;;;;15.93;39.57;98464.25;2621423;54;20022;-64
2022/04/12 09:07:16;;;;;;;2.30;1.77;;;;;;;16.00;39.37;98462.25;2622203;54;20031;-64
2022/04/12 09:09:46;;;;;;;2.95;1.85;;;;;;;16.13;39.35;98471.88;2622783;54;20030;-64
2022/04/12 09:12:17;;;;;;;2.90;1.75;;;;;;;16.24;38.56;98465.66;2622621;54;20081;-63
2022/04/12 09:14:52;;;;;;;3.00;1.60;;;;;;;16.33;38.60;98461.59;2622733;54;20022;-64
2022/04/12 09:17:31;;;;;;;2.05;1.70;;;;;;;16.45;37.68;98462.34;2622814;54;20037;-64
2022/04/12 09:20:01;;;;;;;3.42;1.60;;;;;;;16.52;37.14;98468.34;2622878;54;20027;-63
2022/04/12 09:22:34;;;;;;;2.00;1.40;;;;;;;16.60;37.23;98459.13;2622986;54;20040;-64
2022/04/12 09:25:13;;;;;;;3.60;1.58;;;;;;;16.69;36.74;98454.22;2622884;54;20026;-64
2022/04/12 09:27:44;;;;;;;2.47;1.40;;;;;;;16.80;37.03;98453.38;2622297;47;20574;-63
2022/04/12 09:30:15;;;;;;;2.35;1.48;;;;;;;17.00;36.05;98452.91;2621136;54;20030;-63
2022/04/12 09:32:49;;;;;;;8.15;3.95;;;;;;;17.15;35.68;98445.16;2622683;54;20041;-64
2022/04/12 09:35:19;;;;;;;3.40;3.10;;;;;;;17.31;34.86;98438.19;2621909;39;20208;-63
2022/04/12 09:37:48;;;;;;;2.90;2.00;;;;;;;17.42;34.46;98434.56;2618555;54;20033;-63
2022/04/12 09:40:19;;;;;;;3.25;2.30;;;;;;;17.52;34.72;98426.72;2619519;39;20454;-63
2022/04/12 09:42:54;;;;;;;2.72;1.98;;;;;;;17.67;34.41;98420.75;2618381;47;20031;-63
2022/04/12 09:45:25;;;;;;;4.63;2.03;;;;;;;17.82;34.23;98420.97;2619029;54;20046;-63
2022/04/12 09:48:03;;;;;;;2.05;1.33;;;;;;;17.95;33.65;98419.78;2618625;54;20038;-63
2022/04/12 09:50:53;;;;;;;3.17;1.70;;;;;;;18.10;33.33;98413.81;2619103;54;20030;-64
2022/04/12 09:53:23;;;;;;;1.92;1.45;;;;;;;18.29;33.38;98407.06;2618828;54;20038;-63
2022/04/12 09:55:53;;;;;;;4.57;1.55;;;;;;;18.40;33.23;98407.16;2619282;39;20430;-63
2022/04/12 09:58:23;;;;;;;5.38;1.80;;;;;;;18.52;33.05;98403.25;2618429;54;20046;-64
2022/04/12 10:00:53;;;;;;;3.53;2.30;;;;;;;18.70;33.28;98402.13;2619802;39;20556;-64
2022/04/12 10:03:27;;;;;;;4.20;1.85;;;;;;;18.81;33.20;98382.38;2619542;31;20521;-64
2022/04/12 10:05:58;;;;;;;2.20;1.98;;;;;;;18.97;32.86;98390.53;2618867;54;20030;-63
2022/04/12 10:08:28;;;;;;;2.20;1.60;;;;;;;19.20;32.23;98378.66;2618580;54;20625;-64
2022/04/12 10:10:58;;;;;;;2.25;1.40;;;;;;;19.40;31.93;98361.88;2618868;54;20038;-61
2022/04/12 10:13:29;;;;;;;3.55;1.48;;;;;;;19.46;32.42;98360.84;2618315;54;20045;-65
2022/04/12 10:15:59;;;;;;;3.08;1.88;;;;;;;19.64;32.18;98360.44;2616946;54;20044;-66
2022/04/12 10:18:31;;;;;;;2.67;1.88;;;;;;;19.76;32.44;98349.47;2617423;54;20055;-66
2022/04/12 10:21:02;;;;;;;4.53;1.52;;;;;;;19.90;31.98;98349.78;2617748;54;20120;-66
2022/04/12 10:23:32;;;;;;;2.53;1.20;;;;;;;19.98;31.21;98335.84;2617213;54;20023;-66
2022/04/12 10:26:03;;;;;;;2.60;1.85;;;;;;;20.11;30.93;98339.91;2617788;54;20027;-66
2022/04/12 10:28:33;;;;;;;1.58;1.20;;;;;;;20.21;30.89;98337.25;2617512;54;20543;-66
2022/04/12 10:31:25;;;;;;;4.20;2.25;;;;;;;20.29;30.78;98337.53;2617063;47;20035;-66
2022/04/12 10:34:15;;;;;;;3.22;1.65;;;;;;;20.20;31.15;98333.72;2617734;54;20014;-67
2022/04/12 10:37:08;;;;;;;2.80;1.05;;;;;;;20.34;31.03;98333.22;2617509;54;20045;-66
2022/04/12 10:40:03;;;;;;;2.33;1.20;;;;;;;20.59;30.91;98324.41;2617105;47;20062;-66
2022/04/12 10:42:34;;;;;;;5.13;2.72;;;;;;;20.77;30.59;98331.91;2617790;54;20809;-69
2022/04/12 10:45:06;;;;;;;2.70;1.50;;;;;;;20.89;30.61;98316.31;2617742;54;20027;-68
2022/04/12 10:47:38;;;;;;;2.90;1.65;;;;;;;21.03;30.79;98320.03;2617400;54;20542;-68
2022/04/12 10:50:13;;;;;;;3.05;2.45;;;;;;;21.19;30.17;98315.44;2617757;54;20053;-67
2022/04/12 10:52:48;;;;;;;3.53;1.80;;;;;;;21.35;29.48;98310.84;2617679;54;20090;-68
2022/04/12 10:55:22;;;;;;;6.85;1.67;;;;;;;21.48;29.23;98301.38;2617616;54;20018;-66
2022/04/12 10:57:53;;;;;;;2.10;1.60;;;;;;;21.60;28.70;98303.75;2617327;54;20038;-64
2022/04/12 11:00:24;;;;;;;3.08;1.40;;;;;;;21.77;28.79;98299.63;2617074;54;20566;-65
2022/04/12 11:02:58;;;;;;;4.50;1.52;;;;;;;21.91;28.22;98297.13;2617177;54;20030;-65
2022/04/12 11:06:06;;;;;;;2.63;1.20;;;;;;;21.98;28.40;98305.69;2617650;54;20046;-65
2022/04/12 11:08:47;;;;;;;1.95;1.45;;;;;;;22.10;27.92;98302.66;2616551;54;20038;-65
2022/04/12 11:11:22;;;;;;;2.67;1.70;;;;;;;22.23;28.19;98304.72;2616973;54;20798;-65
2022/04/12 11:13:52;;;;;;;3.22;1.85;;;;;;;22.30;27.47;98303.63;2617543;46;20058;-65
2022/04/12 11:16:27;;;;;;;2.88;1.67;;;;;;;22.41;27.25;98289.81;2616936;47;20145;-65
2022/04/12 11:18:59;;;;;;;4.13;2.97;;;;;;;22.52;27.06;98298.59;2617158;54;20104;-65
2022/04/12 11:22:00;;;;;;;4.72;2.15;;;;;;;22.53;27.39;98292.09;2616867;47;20026;-65
2022/04/12 11:24:33;;;;;;;3.50;1.58;;;;;;;22.60;27.31;98283.72;2617361;54;20551;-65
2022/04/12 11:27:11;;;;;;;2.30;1.40;;;;;;;22.69;26.89;98290.09;2617174;54;20081;-65
2022/04/12 11:29:42;;;;;;;2.55;1.35;;;;;;;22.74;26.81;98298.13;2617584;54;20038;-65
2022/04/12 11:32:13;;;;;;;4.20;2.08;;;;;;;22.86;26.25;98295.03;2616769;47;20146;-65
2022/04/12 11:34:43;;;;;;;3.88;1.30;;;;;;;22.81;25.58;98285.13;2617506;54;20081;-65
2022/04/12 11:37:14;;;;;;;3.45;1.92;;;;;;;22.75;25.65;98295.16;2617273;54;20567;-65
2022/04/12 11:39:47;;;;;;;2.72;1.25;;;;;;;22.80;25.49;98296.19;2618519;39;20431;-65
2022/04/12 11:42:18;;;;;;;2.60;1.23;;;;;;;22.81;25.13;98290.50;2617415;54;20038;-65
2022/04/12 11:44:57;;;;;;;6.68;1.23;;;;;;;22.81;25.09;98287.00;2617513;54;20037;-66
2022/04/12 11:47:33;;;;;;;2.72;1.33;;;;;;;22.85;25.43;98280.75;2617628;54;20049;-66
2022/04/12 11:50:03;;;;;;;5.68;1.60;;;;;;;22.93;25.34;98290.94;2618221;54;20039;-66
2022/04/12 11:52:33;;;;;;;2.83;1.40;;;;;;;22.97;25.70;98291.19;2617726;54;20034;-66
2022/04/12 11:55:06;;;;;;;3.97;1.98;;;;;;;23.18;25.34;98273.69;2618652;54;20034;-66
2022/04/12 11:57:43;;;;;;;2.63;1.48;;;;;;;23.38;24.97;98288.81;2618022;54;20057;-66
2022/04/12 12:00:13;;;;;;;3.72;1.90;;;;;;;23.45;24.99;98281.19;2618248;54;20038;-66
2022/04/12 12:02:44;;;;;;;1.50;1.33;;;;;;;23.45;24.99;98285.78;2618363;54;20039;-66
2022/04/12 12:05:15;;;;;;;4.28;1.05;;;;;;;23.41;24.55;98277.47;2618879;39;20442;-68
2022/04/12 12:07:44;;;;;;;1.80;0.95;;;;;;;23.46;24.63;98285.47;2617662;54;20026;-65
2022/04/12 12:10:18;;;;;;;2.30;1.50;;;;;;;23.52;24.62;98286.25;2618089;39;20445;-64
2022/04/12 12:12:50;;;;;;;4.18;1.50;;;;;;;23.60;24.46;98284.81;2618202;54;20038;-64
2022/04/12 12:15:21;;;;;;;3.30;1.55;;;;;;;23.66;24.05;98289.84;2617773;47;20061;-64
2022/04/12 12:17:52;;;;;;;2.63;1.00;;;;;;;23.68;24.19;98279.59;2617320;54;20034;-65
2022/04/12 12:20:24;;;;;;;4.45;1.20;;;;;;;23.61;24.11;98287.19;2618276;54;20035;-65
2022/04/12 12:22:58;;;;;;;2.53;1.27;;;;;;;23.65;24.27;98280.16;2618029;54;20076;-65
2022/04/12 12:25:41;;;;;;;;;;;;;;;23.64;24.26;98285.81;2618429;54;20038;-65
2022/04/12 12:28:15;;;;;;;4.30;1.40;;;;;;;23.69;24.06;98280.38;2617877;54;19947;-65
2022/04/12 12:30:46;;;;;;;2.50;1.00;;;;;;;23.72;24.09;98280.59;2618198;54;20022;-65
2022/04/12 12:33:16;;;;;;;4.50;1.27;;;;;;;23.79;23.42;98276.72;2618180;54;20042;-65
2022/04/12 12:35:48;;;;;;;4.15;1.40;;;;;;;23.79;23.96;98276.72;2618184;54;20039;-65
2022/04/12 12:38:19;;;;;;;2.10;1.30;;;;;;;23.84;23.72;98293.66;2617692;54;20049;-65
2022/04/12 12:40:58;;;;;;;2.85;1.00;;;;;;;23.86;23.30;98285.28;2618122;54;20042;-65
2022/04/12 12:43:29;;;;;;;3.10;1.27;;;;;;;23.92;23.54;98284.09;2618150;54;20039;-65
2022/04/12 12:45:59;;;;;;;1.77;1.02;;;;;;;23.76;23.51;98288.09;2617741;54;20029;-65
2022/04/12 12:48:29;;;;;;;2.95;1.75;;;;;;;23.66;23.01;98278.25;2617567;54;20066;-65
2022/04/12 12:50:58;;;;;;;4.43;1.90;;;;;;;23.66;24.07;98278.25;2617956;54;20558;-66
2022/04/12 12:53:28;;;;;;;2.28;1.30;;;;;;;23.65;24.08;98282.84;2617805;39;20430;-65
2022/04/12 12:56:01;;;;;;;3.67;2.30;;;;;;;23.65;24.21;98279.31;2618010;54;20040;-65
2022/04/12 12:58:31;;;;;;;3.10;1.80;;;;;;;23.66;24.00;98273.66;2617442;54;20062;-65
2022/04/12 13:01:05;;;;;;;4.00;1.67;;;;;;;23.54;23.57;98277.84;2618588;54;20030;-65
2022/04/12 13:03:35;;;;;;;1.85;1.30;;;;;;;23.55;23.66;98279.44;2618517;54;20039;-65
2022/04/12 13:06:05;;;;;;;1.38;1.25;;;;;;;23.54;23.54;98270.56;2618625;54;20046;-65
2022/04/12 13:08:36;;;;;;;3.53;1.20;;;;;;;23.53;23.93;98276.25;2617784;46;20030;-65
2022/04/12 13:11:08;;;;;;;2.67;1.10;;;;;;;23.48;23.75;98282.53;2618252;54;20038;-65
2022/04/12 13:13:38;;;;;;;2.03;1.33;;;;;;;23.39;23.50;98276.13;2618412;54;20034;-65
2022/04/12 13:16:08;;;;;;;3.03;1.27;;;;;;;23.41;23.38;98274.78;2618784;54;20041;-65
2022/04/12 13:18:38;;;;;;;1.08;0.98;;;;;;;23.38;23.84;98274.53;2618602;54;20042;-65
2022/04/12 13:21:11;;;;;;;2.85;1.17;;;;;;;23.27;23.92;98275.75;2618231;54;20069;-64
2022/04/12 13:23:40;;;;;;;9.35;1.90;;;;;;;23.18;23.55;98272.88;2618171;54;20587;-65
2022/04/12 13:26:13;;;;;;;2.08;1.25;;;;;;;23.15;23.99;98268.88;2618197;54;20054;-65
2022/04/12 13:28:43;;;;;;;3.17;1.37;;;;;;;23.23;24.39;98270.16;2617892;54;20049;-65
2022/04/12 13:31:12;;;;;;;2.08;1.30;;;;;;;23.29;23.90;98263.59;2618627;54;20399;-65
2022/04/12 13:33:43;;;;;;;2.97;1.45;;;;;;;23.24;24.00;98263.66;2618196;54;20053;-65
2022/04/12 13:36:18;;;;;;;4.00;1.27;;;;;;;23.16;24.35;98265.09;2618100;47;20042;-65
2022/04/12 13:38:47;;;;;;;2.25;1.08;;;;;;;23.18;24.51;98260.22;2618112;54;20539;-66
2022/04/12 13:41:20;;;;;;;3.53;1.08;;;;;;;23.17;24.00;98258.59;2618405;54;20558;-64
2022/04/12 13:43:49;;;;;;;2.88;1.55;;;;;;;23.24;24.62;98255.56;2618096;54;20030;-65
2022/04/12 13:46:19;;;;;;;4.05;1.10;;;;;;;23.27;24.35;98254.19;2618057;54;20035;-64
2022/04/12 13:48:49;;;;;;;3.22;1.13;;;;;;;23.28;24.35;98251.22;2617074;47;20046;-65
2022/04/12 13:51:18;;;;;;;2.38;1.27;;;;;;;23.40;24.11;98253.50;2620172;46;20039;-67
2022/04/12 13:53:48;;;;;;;2.90;1.45;;;;;;;23.43;23.69;98250.19;2617696;39;20485;-64
2022/04/12 13:56:24;;;;;;;4.32;1.23;;;;;;;23.42;24.11;98251.28;2617974;54;20039;-64
2022/04/12 13:58:53;;;;;;;1.92;1.10;;;;;;;23.40;23.94;98248.91;2617562;54;20069;-65
2022/04/12 14:01:23;;;;;;;2.67;1.30;;;;;;;23.51;24.74;98246.84;2617834;54;20038;-65
2022/04/12 14:03:53;;;;;;;1.80;1.30;;;;;;;23.58;24.27;98235.72;2617925;54;20118;-64
2022/04/12 14:06:22;;;;;;;2.65;1.30;;;;;;;23.56;24.59;98236.00;2617951;54;20034;-68
2022/04/12 14:08:52;;;;;;;5.22;0.90;;;;;;;23.48;24.34;98239.34;2617465;39;20438;-64
2022/04/12 14:11:24;;;;;;;4.32;1.50;;;;;;;23.45;24.13;98231.84;2617696;54;20030;-64
2022/04/12 14:13:54;;;;;;;2.75;1.92;;;;;;;23.53;24.01;98233.88;2617277;54;20069;-64
2022/04/12 14:16:25;;;;;;;4.32;1.90;;;;;;;23.48;24.10;98226.66;2617592;47;20031;-65
2022/04/12 14:18:55;;;;;;;12.32;4.22;;;;;;;23.54;24.21;98229.28;2618069;39;20416;-65
2022/04/12 14:21:25;;;;;;;2.90;2.20;;;;;;;23.58;24.16;98225.72;2618063;54;20053;-65
2022/04/12 14:23:55;;;;;;;2.85;2.03;;;;;;;23.71;23.74;98224.22;2617443;54;20061;-66
2022/04/12 14:26:28;;;;;;;3.20;2.00;;;;;;;23.81;24.04;98226.78;2617528;54;20022;-65
2022/04/12 14:28:58;;;;;;;1.60;1.30;;;;;;;23.82;24.00;98225.66;2617059;54;20094;-65
2022/04/12 14:31:28;;;;;;;3.13;1.40;;;;;;;23.86;23.95;98221.28;2617576;54;20543;-66
2022/04/12 14:33:57;;;;;;;2.83;1.38;;;;;;;23.87;23.68;98222.09;2617576;39;20438;-67
2022/04/12 14:36:28;;;;;;;3.30;1.73;;;;;;;23.89;23.55;98222.63;2617308;54;20022;-66
2022/04/12 14:38:58;;;;;;;4.32;1.95;;;;;;;23.87;23.89;98217.50;2617090;54;20054;-66
2022/04/12 14:41:31;;;;;;;3.28;1.77;;;;;;;23.89;23.74;98222.63;2617739;54;20026;-66
2022/04/12 14:44:01;;;;;;;1.67;1.25;;;;;;;23.87;23.69;98214.78;2618322;54;20078;-68
2022/04/12 14:46:31;;;;;;;2.78;1.48;;;;;;;23.85;24.13;98213.50;2618304;54;20539;-66
2022/04/12 14:49:01;;;;;;;4.03;2.17;;;;;;;23.85;24.22;98210.81;2617243;54;20031;-65
2022/04/12 14:51:31;;;;;;;2.30;1.80;;;;;;;23.88;23.95;98208.31;2617763;39;20424;-66
2022/04/12 14:54:01;;;;;;;2.35;1.67;;;;;;;23.92;23.82;98211.22;2618499;54;20027;-65
2022/04/12 14:56:34;;;;;;;2.67;1.50;;;;;;;24.04;23.75;98208.06;2617651;54;20078;-67
2022/04/12 14:59:09;;;;;;;3.58;1.65;;;;;;;24.10;23.26;98206.91;2617379;39;20534;-67
2022/04/12 15:01:39;;;;;;;2.85;1.60;;;;;;;24.10;23.61;98205.00;2617580;47;20058;-66
2022/04/12 15:04:09;;;;;;;1.98;1.40;;;;;;;24.23;23.55;98204.22;2618038;54;20030;-66
2022/04/12 15:06:42;;;;;;;5.75;1.73;;;;;;;24.30;23.33;98200.34;2617991;54;20034;-65
2022/04/12 15:09:12;;;;;;;2.47;1.50;;;;;;;24.28;23.14;98199.81;2616989;51;20031;-64
2022/04/12 15:11:45;;;;;;;2.60;1.50;;;;;;;24.25;23.11;98208.53;2617331;39;20391;-65
2022/04/12 15:14:15;;;;;;;1.90;1.40;;;;;;;24.20;23.18;98194.00;2617741;54;20046;-65
2022/04/12 15:16:45;;;;;;;4.78;1.55;;;;;;;24.28;23.21;98199.81;2617502;47;20146;-65
2022/04/12 15:19:15;;;;;;;2.05;1.30;;;;;;;24.34;22.82;98207.56;2617434;39;20419;-64
2022/04/12 15:21:45;;;;;;;2.42;1.50;;;;;;;24.41;23.19;98199.06;2617703;54;20049;-64
2022/04/12 15:24:15;;;;;;;3.45;2.08;;;;;;;24.42;23.22;98193.41;2617526;54;20030;-65
2022/04/12 15:26:48;;;;;;;3.20;1.50;;;;;;;24.46;23.19;98191.72;2618001;54;20045;-65
2022/04/12 15:29:19;;;;;;;3.05;1.25;;;;;;;24.51;22.50;98198.13;2617806;54;20551;-65
2022/04/12 15:31:50;;;;;;;3.08;1.42;;;;;;;24.46;22.77;98204.41;2618020;54;20166;-65
2022/04/12 15:34:19;;;;;;;2.05;1.30;;;;;;;24.47;22.76;98197.91;2617407;54;20062;-66
2022/04/12 15:36:49;;;;;;;2.80;1.50;;;;;;;24.44;22.91;98202.00;2617025;54;20046;-65
2022/04/12 15:39:19;;;;;;;3.63;1.85;;;;;;;24.45;23.13;98195.50;2617019;47;20050;-66
2022/04/12 15:41:52;;;;;;;6.57;2.03;;;;;;;24.46;23.21;98197.09;2617808;54;20047;-65
2022/04/12 15:44:22;;;;;;;4.38;1.75;;;;;;;24.37;23.10;98209.69;2617068;54;20159;-66
2022/04/12 15:46:52;;;;;;;5.05;1.70;;;;;;;24.48;23.27;98210.31;2617324;54;20065;-66
2022/04/12 15:49:21;;;;;;;8.38;2.08;;;;;;;24.39;23.47;98210.19;2616882;54;20034;-65
2022/04/12 15:51:51;;;;;;;2.97;1.63;;;;;;;24.22;23.48;98216.13;2617026;54;20052;-65
2022/04/12 15:54:21;;;;;;;7.15;2.22;;;;;;;24.13;23.63;98212.50;2617909;39;20387;-65
2022/04/12 15:56:54;;;;;;;3.28;1.40;;;;;;;23.99;23.80;98222.44;2616752;54;20554;-66
2022/04/12 15:59:23;;;;;;;6.63;1.67;;;;;;;23.91;23.67;98225.81;2618056;54;20543;-64
2022/04/12 16:01:53;;;;;;;4.55;1.60;;;;;;;23.82;24.02;98225.66;2617417;54;20034;-65
2022/04/12 16:04:23;;;;;;;3.10;1.90;;;;;;;23.75;24.45;98233.31;2617727;51;20023;-65
2022/04/12 16:06:55;;;;;;;2.28;1.75;;;;;;;23.72;23.83;98232.03;2617123;39;20434;-65
2022/04/12 16:09:25;;;;;;;2.58;1.48;;;;;;;23.62;24.27;98229.44;2617854;54;20027;-65